createdAt,value
2022-10-29T00:01:42.715Z,22.43
2022-10-29T00:04:12.809Z,22.42
2022-10-29T00:06:42.606Z,22.33
2022-10-29T00:09:12.476Z,22.24
2022-10-29T00:11:42.678Z,22.19
2022-10-29T00:14:12.461Z,22.16
2022-10-29T00:16:42.735Z,22.14
2022-10-29T00:19:12.534Z,22.06
2022-10-29T00:21:42.297Z,22.06
2022-10-29T00:24:12.671Z,22.04
2022-10-29T00:26:42.469Z,22.01
2022-10-29T00:29:12.325Z,21.97
2022-10-29T00:31:42.101Z,21.97
2022-10-29T00:34:12.006Z,21.95
2022-10-29T00:36:41.871Z,21.90
2022-10-29T00:39:18.375Z,21.94
2022-10-29T00:41:48.776Z,21.84
2022-10-29T00:44:23.596Z,21.75
2022-10-29T00:46:58.916Z,21.74
2022-10-29T00:49:30.045Z,21.70
2022-10-29T00:52:02.757Z,21.63
2022-10-29T00:54:38.160Z,21.61
2022-10-29T00:57:18.349Z,21.57
2022-10-29T00:59:50.625Z,21.57
2022-10-29T01:02:22.157Z,21.57
2022-10-29T01:04:54.656Z,21.57
2022-10-29T01:07:25.822Z,21.56
2022-10-29T01:09:56.132Z,21.49
2022-10-29T01:12:44.585Z,21.46
2022-10-29T01:15:28.728Z,21.44
2022-10-29T01:18:10.603Z,21.40
2022-10-29T01:21:06.663Z,21.39
2022-10-29T01:23:43.969Z,21.42
2022-10-29T01:26:25.204Z,21.42
2022-10-29T01:29:40.889Z,21.40
2022-10-29T01:32:24.085Z,21.37
2022-10-29T01:35:12.512Z,21.29
2022-10-29T01:38:16.169Z,21.29
2022-10-29T01:41:10.678Z,21.23
2022-10-29T01:43:52.688Z,21.18
2022-10-29T01:46:51.538Z,21.19
2022-10-29T01:49:36.380Z,21.16
2022-10-29T01:52:09.076Z,21.10
2022-10-29T01:54:46.600Z,21.06
2022-10-29T01:57:37.749Z,21.09
2022-10-29T02:00:16.798Z,21.05
2022-10-29T02:03:04.821Z,20.96
2022-10-29T02:05:46.382Z,20.94
2022-10-29T02:08:51.932Z,20.96
2022-10-29T02:11:26.823Z,20.95
2022-10-29T02:14:03.903Z,20.92
2022-10-29T02:16:35.648Z,20.92
2022-10-29T02:19:07.380Z,20.91
2022-10-29T02:21:37.361Z,20.89
2022-10-29T02:24:07.876Z,20.89
2022-10-29T02:26:37.855Z,20.85
2022-10-29T02:29:08.021Z,20.76
2022-10-29T02:31:37.779Z,20.78
2022-10-29T02:34:08.014Z,20.81
2022-10-29T02:36:37.784Z,20.84
2022-10-29T02:39:07.552Z,20.79
2022-10-29T02:41:37.361Z,20.81
2022-10-29T02:44:07.171Z,20.76
2022-10-29T02:46:40.786Z,20.74
2022-10-29T02:49:11.047Z,20.72
2022-10-29T02:51:40.823Z,20.67
2022-10-29T02:54:10.590Z,20.64
2022-10-29T02:56:40.402Z,20.63
2022-10-29T02:59:11.924Z,20.63
2022-10-29T03:01:42.260Z,20.59
2022-10-29T03:04:13.270Z,20.64
2022-10-29T03:06:43.231Z,20.63
2022-10-29T03:09:13.392Z,20.59
2022-10-29T03:11:43.148Z,20.61
2022-10-29T03:14:12.908Z,20.63
2022-10-29T03:16:42.700Z,20.61
2022-10-29T03:19:12.520Z,20.59
2022-10-29T03:21:42.241Z,20.55
2022-10-29T03:24:12.037Z,20.51
2022-10-29T03:26:41.858Z,20.48
2022-10-29T03:29:11.672Z,20.47
2022-10-29T03:31:41.912Z,20.45
2022-10-29T03:34:11.982Z,20.41
2022-10-29T03:36:41.750Z,20.38
2022-10-29T03:39:11.486Z,20.37
2022-10-29T03:41:41.208Z,20.43
2022-10-29T03:44:11.156Z,20.44
2022-10-29T03:46:40.875Z,20.43
2022-10-29T03:49:11.070Z,20.38
2022-10-29T03:51:41.005Z,20.35
2022-10-29T03:54:10.765Z,20.33
2022-10-29T03:56:40.530Z,20.30
2022-10-29T04:01:45.317Z,20.21
2022-10-29T04:04:15.624Z,20.21
2022-10-29T04:06:45.741Z,20.20
2022-10-29T04:09:15.495Z,20.18
2022-10-29T04:11:45.233Z,20.18
2022-10-29T04:14:14.985Z,20.14
2022-10-29T04:16:44.744Z,20.10
2022-10-29T04:19:14.515Z,20.13
2022-10-29T04:28:17.834Z,20.05
2022-10-29T04:30:15.284Z,20.01
2022-10-29T04:32:45.454Z,20.01
2022-10-29T04:35:15.281Z,20.00
2022-10-29T04:37:45.126Z,20.06
2022-10-29T04:40:14.916Z,19.98
2022-10-29T04:42:44.875Z,19.97
2022-10-29T04:45:14.917Z,19.93
2022-10-29T04:47:45.297Z,19.97
2022-10-29T04:50:15.237Z,20.00
2022-10-29T04:52:45.567Z,20.00
2022-10-29T04:55:15.358Z,19.94
2022-10-29T04:57:50.276Z,19.87
2022-10-29T05:00:20.898Z,19.87
2022-10-29T05:02:51.980Z,19.89
2022-10-29T05:05:23.154Z,19.86
2022-10-29T05:08:03.889Z,19.87
2022-10-29T05:10:37.367Z,19.82
2022-10-29T05:13:11.417Z,19.79
2022-10-29T05:15:41.700Z,19.79
2022-10-29T05:18:12.285Z,19.76
2022-10-29T05:20:42.917Z,19.73
2022-10-29T05:23:13.882Z,19.73
2022-10-29T05:25:44.010Z,19.72
2022-10-29T05:28:16.478Z,19.72
2022-10-29T05:30:47.878Z,19.67
2022-10-29T05:33:20.613Z,19.63
2022-10-29T05:35:51.488Z,19.62
2022-10-29T05:38:21.993Z,19.62
2022-10-29T05:40:52.326Z,19.62
2022-10-29T05:43:22.078Z,19.58
2022-10-29T05:45:51.805Z,19.58
2022-10-29T05:48:22.603Z,19.55
2022-10-29T05:50:52.375Z,19.55
2022-10-29T05:53:22.545Z,19.52
2022-10-29T05:55:52.983Z,19.49
2022-10-29T05:58:22.729Z,19.46
2022-10-29T06:00:52.606Z,19.46
2022-10-29T06:03:23.877Z,19.45
2022-10-29T06:05:55.608Z,19.45
2022-10-29T06:08:25.704Z,19.42
2022-10-29T06:10:55.594Z,19.44
2022-10-29T06:13:25.344Z,19.39
2022-10-29T06:16:01.577Z,19.39
2022-10-29T06:18:32.195Z,19.41
2022-10-29T06:21:02.678Z,19.39
2022-10-29T06:23:32.431Z,19.42
2022-10-29T06:26:02.948Z,19.39
2022-10-29T06:28:35.084Z,19.38
2022-10-29T06:31:05.501Z,19.38
2022-10-29T06:33:35.269Z,19.38
2022-10-29T06:36:05.149Z,19.39
2022-10-29T06:38:34.889Z,19.48
2022-10-29T06:41:04.901Z,19.44
2022-10-29T06:43:34.963Z,19.42
2022-10-29T06:46:05.029Z,19.45
2022-10-29T06:48:34.917Z,19.54
2022-10-29T06:51:04.690Z,19.55
2022-10-29T06:53:34.493Z,19.55
2022-10-29T06:56:04.287Z,19.55
2022-10-29T06:58:34.434Z,19.55
2022-10-29T07:01:04.225Z,19.55
2022-10-29T07:03:34.002Z,19.62
2022-10-29T07:06:03.739Z,19.63
2022-10-29T07:08:34.450Z,19.62
2022-10-29T07:11:05.577Z,19.58
2022-10-29T07:13:35.547Z,19.59
2022-10-29T07:16:05.488Z,19.59
2022-10-29T07:18:35.722Z,19.63
2022-10-29T07:21:06.459Z,19.67
2022-10-29T07:23:36.847Z,19.69
2022-10-29T07:26:06.746Z,19.69
2022-10-29T07:28:36.510Z,19.69
2022-10-29T07:31:07.447Z,19.63
2022-10-29T07:33:37.653Z,19.49
2022-10-29T07:36:08.078Z,19.49
2022-10-29T07:38:38.099Z,19.55
2022-10-29T07:41:07.933Z,19.56
2022-10-29T07:43:37.670Z,19.59
2022-10-29T07:46:07.584Z,19.63
2022-10-29T07:48:37.653Z,19.62
2022-10-29T07:51:07.501Z,19.59
2022-10-29T07:53:37.349Z,19.63
2022-10-29T07:56:07.394Z,19.72
2022-10-29T07:58:37.651Z,19.77
2022-10-29T08:01:07.524Z,19.77
2022-10-29T08:03:37.373Z,19.75
2022-10-29T08:06:07.355Z,19.83
2022-10-29T08:08:37.181Z,19.92
2022-10-29T08:11:08.229Z,19.90
2022-10-29T08:13:38.118Z,19.94
2022-10-29T08:16:08.125Z,20.00
2022-10-29T08:18:37.890Z,20.00
2022-10-29T08:21:07.944Z,20.03
2022-10-29T08:23:37.679Z,20.05
2022-10-29T08:26:07.920Z,20.00
2022-10-29T08:28:38.134Z,20.03
2022-10-29T08:31:08.006Z,19.89
2022-10-29T08:48:49.300Z,19.77
2022-10-29T08:51:29.697Z,19.80
2022-10-29T08:57:00.045Z,19.80
2022-10-29T08:59:38.303Z,19.55
2022-10-29T09:02:18.729Z,19.55
2022-10-29T09:04:49.712Z,19.67
2022-10-29T09:07:48.856Z,19.67
2022-10-29T09:10:34.826Z,19.59
2022-10-29T09:13:20.227Z,19.55
2022-10-29T09:15:57.793Z,19.51
2022-10-29T09:18:46.727Z,19.51
2022-10-29T09:21:19.408Z,19.51
2022-10-29T09:24:26.266Z,19.42
2022-10-29T09:27:08.219Z,19.32
2022-10-29T09:30:14.841Z,19.41
2022-10-29T09:33:08.329Z,19.41
2022-10-29T09:35:47.796Z,19.44
2022-10-29T09:38:36.374Z,19.44
2022-10-29T09:41:07.342Z,19.44
2022-10-29T09:43:56.474Z,19.41
2022-10-29T09:47:08.610Z,19.38
2022-10-29T09:50:02.007Z,19.28
2022-10-29T09:52:40.758Z,19.25
2022-10-29T09:55:23.791Z,19.22
2022-10-29T09:57:55.680Z,19.19
2022-10-29T10:00:30.308Z,19.12
2022-10-29T10:03:33.110Z,19.12
2022-10-29T10:06:04.955Z,19.24
2022-10-29T10:08:37.130Z,19.22
2022-10-29T10:11:10.995Z,19.17
2022-10-29T10:13:55.263Z,19.22
2022-10-29T10:16:34.585Z,19.29
2022-10-29T10:19:05.882Z,19.17
2022-10-29T10:21:36.046Z,19.04
2022-10-29T10:24:35.900Z,18.93
2022-10-29T10:27:21.126Z,18.77
2022-10-29T10:30:06.970Z,18.68
2022-10-29T10:32:37.191Z,18.70
2022-10-29T10:35:29.649Z,18.73
2022-10-29T10:38:07.960Z,18.67
2022-10-29T10:40:38.441Z,18.39
2022-10-29T10:43:10.528Z,18.09
2022-10-29T10:45:41.294Z,18.05
2022-10-29T10:48:12.637Z,18.19
2022-10-29T10:50:43.275Z,18.36
2022-10-29T10:53:22.020Z,18.61
2022-10-29T10:56:00.782Z,18.93
2022-10-29T10:58:41.231Z,19.14
2022-10-29T11:01:16.832Z,19.24
2022-10-29T11:04:00.170Z,19.17
2022-10-29T11:06:33.362Z,19.18
2022-10-29T11:09:26.705Z,19.29
2022-10-29T11:12:09.495Z,19.35
2022-10-29T11:14:48.097Z,19.42
2022-10-29T11:17:25.279Z,19.44
2022-10-29T11:20:01.106Z,19.41
2022-10-29T11:22:51.173Z,19.44
2022-10-29T11:25:41.397Z,19.42
2022-10-29T11:28:11.550Z,19.35
2022-10-29T11:30:48.521Z,19.28
2022-10-29T11:33:43.011Z,19.21
2022-10-29T11:36:16.858Z,19.14
2022-10-29T11:39:14.719Z,19.15
2022-10-29T11:42:03.638Z,19.14
2022-10-29T11:44:40.295Z,19.10
2022-10-29T11:47:37.305Z,19.12
2022-10-29T11:50:10.598Z,19.06
2022-10-29T11:53:17.101Z,19.06
2022-10-29T11:56:09.114Z,19.01
2022-10-29T11:59:09.762Z,18.98
2022-10-29T12:02:22.047Z,19.04
2022-10-29T12:05:03.052Z,19.15
2022-10-29T12:07:52.558Z,19.22
2022-10-29T12:10:31.365Z,19.36
2022-10-29T12:19:37.168Z,18.43
2022-10-29T12:22:47.487Z,18.39
2022-10-29T12:25:32.101Z,18.39
2022-10-29T12:28:28.081Z,18.36
2022-10-29T12:31:01.013Z,18.28
2022-10-29T12:33:57.206Z,18.26
2022-10-29T12:36:35.630Z,18.26
2022-10-29T12:39:07.865Z,18.22
2022-10-29T12:41:53.057Z,18.16
2022-10-29T12:44:46.506Z,18.22
2022-10-29T12:47:26.506Z,18.21
2022-10-29T12:50:07.092Z,18.25
2022-10-29T12:53:12.073Z,18.35
2022-10-29T12:55:43.531Z,18.43
2022-10-29T12:58:45.878Z,18.50
2022-10-29T13:02:09.661Z,18.52
2022-10-29T13:04:33.359Z,18.49
2022-10-29T13:07:24.484Z,18.49
2022-10-29T13:10:29.792Z,18.36
2022-10-29T13:13:18.099Z,18.32
2022-10-29T13:16:20.225Z,18.32
2022-10-29T13:19:19.398Z,18.40
2022-10-29T13:22:04.384Z,18.56
2022-10-29T13:24:34.947Z,18.71
2022-10-29T13:27:26.297Z,18.81
2022-10-29T13:30:17.686Z,19.06
2022-10-29T13:32:47.738Z,19.07
2022-10-29T13:35:21.394Z,19.07
2022-10-29T13:38:12.372Z,19.12
2022-10-29T13:40:55.408Z,19.17
2022-10-29T13:43:26.198Z,19.14
2022-10-29T13:46:13.210Z,19.29
2022-10-29T13:48:44.785Z,19.22
2022-10-29T13:51:22.443Z,19.32
2022-10-29T13:54:01.298Z,19.35
2022-10-29T13:56:50.436Z,19.35
2022-10-29T13:59:32.363Z,19.42
2022-10-29T14:02:27.287Z,19.32
2022-10-29T14:05:16.628Z,19.25
2022-10-29T14:08:11.440Z,19.08
2022-10-29T14:10:41.512Z,19.07
2022-10-29T14:13:29.665Z,19.10
2022-10-29T14:16:13.132Z,19.00
2022-10-29T14:18:47.400Z,18.98
2022-10-29T14:21:23.186Z,18.98
2022-10-29T14:24:07.719Z,18.98
2022-10-29T14:26:40.432Z,19.06
2022-10-29T14:29:26.334Z,19.04
2022-10-29T14:32:24.635Z,19.04
2022-10-29T14:34:55.694Z,19.07
2022-10-29T14:37:42.697Z,19.04
2022-10-29T14:40:21.342Z,18.91
2022-10-29T14:42:56.570Z,18.77
2022-10-29T14:45:29.707Z,18.70
2022-10-29T14:48:04.361Z,18.78
2022-10-29T14:50:35.139Z,18.86
2022-10-29T14:53:30.585Z,18.77
2022-10-29T14:56:01.673Z,18.74
2022-10-29T14:58:37.322Z,18.76
2022-10-29T15:01:21.379Z,18.77
2022-10-29T15:04:03.149Z,18.74
2022-10-29T15:06:33.509Z,18.68
2022-10-29T15:09:08.687Z,18.74
2022-10-29T15:12:00.181Z,18.73
2022-10-29T15:14:33.702Z,18.78
2022-10-29T15:17:11.171Z,18.76
2022-10-29T15:19:45.461Z,18.77
2022-10-29T15:22:31.686Z,18.83
2022-10-29T15:25:05.195Z,19.01
2022-10-29T15:27:38.883Z,18.93
2022-10-29T15:30:19.248Z,19.01
2022-10-29T15:32:50.836Z,19.11
2022-10-29T15:35:22.882Z,19.28
2022-10-29T15:37:54.410Z,19.44
2022-10-29T15:40:27.033Z,19.61
2022-10-29T15:42:58.091Z,19.66
2022-10-29T15:45:29.761Z,19.58
2022-10-29T15:48:37.834Z,19.54
2022-10-29T15:51:07.861Z,19.46
2022-10-29T15:53:38.410Z,19.49
2022-10-29T15:56:13.214Z,19.54
2022-10-29T15:58:43.454Z,19.58
2022-10-29T16:01:16.583Z,19.59
2022-10-29T16:03:47.562Z,19.70
2022-10-29T16:06:18.162Z,19.97
2022-10-29T16:08:56.896Z,20.17
2022-10-29T16:11:28.057Z,20.23
2022-10-29T16:14:00.225Z,20.65
2022-10-29T16:16:32.782Z,20.98
2022-10-29T16:19:02.973Z,21.22
2022-10-29T16:21:32.786Z,21.25
2022-10-29T16:24:02.616Z,21.03
2022-10-29T16:26:32.709Z,20.84
2022-10-29T16:29:02.416Z,20.68
2022-10-29T16:31:32.586Z,20.55
2022-10-29T16:34:05.854Z,20.28
2022-10-29T16:36:36.188Z,20.10
2022-10-29T16:39:05.995Z,20.18
2022-10-29T16:41:36.436Z,20.20
2022-10-29T16:44:06.707Z,20.43
2022-10-29T16:46:36.488Z,20.54
2022-10-29T16:49:06.279Z,20.78
2022-10-29T16:51:36.140Z,20.94
2022-10-29T16:54:05.979Z,20.89
2022-10-29T16:56:35.782Z,20.78
2022-10-29T16:59:05.659Z,20.68
2022-10-29T17:01:35.835Z,20.37
2022-10-29T17:04:06.619Z,20.20
2022-10-29T17:06:36.457Z,20.23
2022-10-29T17:09:08.216Z,20.31
2022-10-29T17:11:38.715Z,20.31
2022-10-29T17:14:08.827Z,20.05
2022-10-29T17:16:38.694Z,19.93
2022-10-29T17:19:08.629Z,19.77
2022-10-29T17:21:38.444Z,19.76
2022-10-29T17:24:08.566Z,19.83
2022-10-29T17:26:38.372Z,19.93
2022-10-29T17:29:08.362Z,19.85
2022-10-29T17:31:38.210Z,19.76
2022-10-29T17:34:08.095Z,19.72
2022-10-29T17:36:42.034Z,19.75
2022-10-29T17:39:13.320Z,19.82
2022-10-29T17:41:43.317Z,19.85
2022-10-29T17:44:13.555Z,19.72
2022-10-29T17:46:43.330Z,19.66
2022-10-29T17:49:13.243Z,19.61
2022-10-29T17:51:43.040Z,19.55
2022-10-29T17:54:18.975Z,19.66
2022-10-29T17:56:50.206Z,19.85
2022-10-29T17:59:20.157Z,19.67
2022-10-29T18:01:50.503Z,19.38
2022-10-29T18:04:21.416Z,19.45
2022-10-29T18:06:51.394Z,19.56
2022-10-29T18:09:21.425Z,19.61
2022-10-29T18:11:51.572Z,19.52
2022-10-29T18:14:21.807Z,19.44
2022-10-29T18:16:51.636Z,19.45
2022-10-29T18:19:22.015Z,19.46
2022-10-29T18:21:51.905Z,19.48
2022-10-29T18:24:24.458Z,19.63
2022-10-29T18:26:54.462Z,19.87
2022-10-29T18:29:24.733Z,19.96
2022-10-29T18:31:54.497Z,20.00
2022-10-29T18:34:24.335Z,20.10
2022-10-29T18:36:54.273Z,20.13
2022-10-29T18:39:24.813Z,19.98
2022-10-29T18:41:54.992Z,19.80
2022-10-29T18:44:24.994Z,19.63
2022-10-29T18:46:54.815Z,19.55
2022-10-29T18:49:24.761Z,19.66
2022-10-29T18:51:55.597Z,19.67
2022-10-29T18:54:25.883Z,19.66
2022-10-29T18:56:56.207Z,19.65
2022-10-29T18:59:25.950Z,20.00
2022-10-29T19:01:56.251Z,20.76
2022-10-29T19:04:26.056Z,21.26
2022-10-29T19:06:56.269Z,21.19
2022-10-29T19:09:26.149Z,21.27
2022-10-29T19:11:58.499Z,21.57
2022-10-29T19:14:30.127Z,21.56
2022-10-29T19:17:00.495Z,21.57
2022-10-29T19:19:31.275Z,21.61
2022-10-29T19:22:01.518Z,21.74
2022-10-29T19:24:31.907Z,21.74
2022-10-29T19:27:02.398Z,21.85
2022-10-29T19:29:32.217Z,21.87
2022-10-29T19:32:01.984Z,22.11
2022-10-29T19:34:31.816Z,22.21
2022-10-29T19:37:01.659Z,22.21
2022-10-29T19:39:31.893Z,22.28
2022-10-29T19:42:02.047Z,22.39
2022-10-29T19:44:32.012Z,22.38
2022-10-29T19:47:02.258Z,22.29
2022-10-29T19:49:32.036Z,22.18
2022-10-29T19:52:01.826Z,22.06
2022-10-29T19:54:32.105Z,21.97
2022-10-29T19:57:01.978Z,22.04
2022-10-29T19:59:32.068Z,22.08
2022-10-29T20:02:02.092Z,22.02
2022-10-29T20:04:33.004Z,21.97
2022-10-29T20:07:03.011Z,22.02
2022-10-29T20:09:33.129Z,22.16
2022-10-29T20:12:03.170Z,22.43
2022-10-29T20:14:36.655Z,22.66
2022-10-29T20:17:07.258Z,22.73
2022-10-29T20:19:37.350Z,22.66
2022-10-29T20:22:07.096Z,22.51
2022-10-29T20:24:36.914Z,22.45
2022-10-29T20:27:06.692Z,22.41
2022-10-29T20:29:36.796Z,22.14
2022-10-29T20:32:06.658Z,21.87
2022-10-29T20:34:36.772Z,21.64
2022-10-29T20:37:06.527Z,21.61
2022-10-29T20:39:36.346Z,21.53
2022-10-29T20:42:06.228Z,21.57
2022-10-29T20:44:36.015Z,21.63
2022-10-29T20:47:05.821Z,21.81
2022-10-29T20:49:35.660Z,21.91
2022-10-29T20:52:05.736Z,21.93
2022-10-29T20:54:35.503Z,21.90
2022-10-29T20:57:05.378Z,21.81
2022-10-29T20:59:35.181Z,21.75
2022-10-29T21:02:05.089Z,21.64
2022-10-29T21:04:34.984Z,21.57
2022-10-29T21:07:04.790Z,21.42
2022-10-29T21:09:34.790Z,21.32
2022-10-29T21:12:05.118Z,21.26
2022-10-29T21:14:34.957Z,21.20
2022-10-29T21:17:05.665Z,21.19
2022-10-29T21:19:35.454Z,21.07
2022-10-29T21:22:05.217Z,21.03
2022-10-29T21:24:35.656Z,21.03
2022-10-29T21:27:07.308Z,20.92
2022-10-29T21:29:37.498Z,20.85
2022-10-29T21:32:11.314Z,20.74
2022-10-29T21:34:44.522Z,20.58
2022-10-29T21:37:14.914Z,20.47
2022-10-29T21:39:45.313Z,20.31
2022-10-29T21:42:15.086Z,20.24
2022-10-29T21:44:44.860Z,20.16
2022-10-29T21:47:14.640Z,20.09
2022-10-29T21:49:46.939Z,20.00
2022-10-29T21:52:21.411Z,19.92
2022-10-29T21:54:51.318Z,19.85
2022-10-29T21:57:21.413Z,19.79
2022-10-29T21:59:51.177Z,19.69
2022-10-29T22:02:21.611Z,19.69
2022-10-29T22:04:51.413Z,19.70
2022-10-29T22:07:21.168Z,19.69
2022-10-29T22:09:51.300Z,19.61
2022-10-29T22:12:21.425Z,19.54
2022-10-29T22:14:51.256Z,19.51
2022-10-29T22:17:21.094Z,19.52
2022-10-29T22:19:51.423Z,19.44
2022-10-29T22:22:22.655Z,19.36
2022-10-29T22:24:52.631Z,19.24
2022-10-29T22:27:22.936Z,19.24
2022-10-29T22:29:54.467Z,19.24
2022-10-29T22:32:24.755Z,19.19
2022-10-29T22:34:54.945Z,19.17
2022-10-29T22:37:25.753Z,19.10
2022-10-29T22:39:55.548Z,19.07
2022-10-29T22:42:25.426Z,19.04
2022-10-29T22:44:55.239Z,19.01
2022-10-29T22:47:25.393Z,18.91
2022-10-29T22:49:57.677Z,18.87
2022-10-29T22:52:28.156Z,18.81
2022-10-29T22:54:58.033Z,18.80
2022-10-29T22:57:27.940Z,18.81
2022-10-29T22:59:57.943Z,18.80
2022-10-29T23:02:28.136Z,18.77
2022-10-29T23:04:57.895Z,18.74
2022-10-29T23:07:28.176Z,18.71
2022-10-29T23:09:57.950Z,18.66
2022-10-29T23:12:27.730Z,18.66
2022-10-29T23:14:57.572Z,18.60
2022-10-29T23:17:27.431Z,18.60
2022-10-29T23:19:57.385Z,18.63
2022-10-29T23:22:27.924Z,18.60
2022-10-29T23:24:57.888Z,18.55
2022-10-29T23:27:28.004Z,18.53
2022-10-29T23:29:58.249Z,18.52
2022-10-29T23:32:27.988Z,18.49
2022-10-29T23:34:57.967Z,18.49
2022-10-29T23:37:27.745Z,18.47
2022-10-29T23:39:57.991Z,18.45
2022-10-29T23:42:27.732Z,18.43
2022-10-29T23:45:01.198Z,18.46
2022-10-29T23:47:33.702Z,18.53
2022-10-29T23:50:04.112Z,18.52
2022-10-29T23:52:34.662Z,18.50
2022-10-29T23:55:04.598Z,18.55
2022-10-29T23:57:34.595Z,18.56
